Nederlandse vliegveldverwachtingen (TAF)

Luchtvaartmeteorologische informatie voor operationeel gebruik en vluchtvoorbereiding is beschikbaar op www.luchtvaartmeteo.nl.

ZCZC
FC181700 EHGR     GILZE-RIJEN/GILZE-RIJEN   NLD   14 m.
TAF EHGR 181700Z NIL=

ZCZC
FC181700 EHLW     LEEUWARDEN/LEEUWARDEN   NLD   1 m.
TAF EHLW 181700Z NIL=

ZCZC
FC181700 EHVK     VOLKEL/VOLKEL   NLD   21 m.
TAF EHVK 181700Z NIL=

ZCZC
FC181700 EHWO     WOENSDRECHT/WOENSDRECHT   NLD   19 m.
TAF EHWO 181700Z NIL=

ZCZC
FC182200 EHKD     DE KOOY/DE KOOY   NLD   1 m.
TAF EHKD 182200Z NIL=

ZCZC
FT182300 EHAM     AMSTERDAM/SCHIPHOL   NLD   -3 m.
TAF EHAM 182240Z 1900/2006 16006KT 7000 NSC
    PROB30 TEMPO 1903/1908 4500 BR
    BECMG 1907/1909 CAVOK
    PROB30 2001/2006 4000 MIFG BR=

ZCZC
FT182300 EHBK     MAASTRICHT/MAASTRICHT-AACHEN   NLD   114 m.
TAF EHBK 182309Z 1900/2006 18005KT CAVOK
    PROB30 TEMPO 2000/2006 2500 BR=

ZCZC
FT182300 EHGG     GRONINGEN/EELDE   NLD   5 m.
TAF EHGG 182309Z 1900/2006 18005KT 6000 NSC
    PROB40 1900/1906 1500 BCFG BR
    BECMG 1906/1909 9999 SCT020
    BECMG 1920/1923 4500 BR MIFG
    PROB30 1920/2006 1500 BCFG=

ZCZC
FT182300 EHRD     ROTTERDAM/THE HAGUE AIRPORT   NLD   -5 m.
TAF EHRD 182237Z 1900/2006 17006KT CAVOK
    PROB30 1903/1908 6000
    PROB40 2001/2006 4000 MIFG BR=

ZCZC
FT182300 EHEH     EINDHOVEN/EINDHOVEN   NLD   22 m.
TAF EHEH 182327Z 1900/2006 18003KT CAVOK
    PROB40 TEMPO 1900/1908 3000 MIFG
    BECMG 1918/1921 09003KT=

19/02/2018 01.15 uur LT